Time;durP1;ratioP1;P1;durP2;ratioP2;P2;SDS_P1;SDS_P2;PMS_P1;PMS_P2;Temp;Humidity;BMP_temperature;BMP_pressure;BME280_temperature;BME280_humidity;BME280_pressure;Samples;Min_cycle;Max_cycle;Signal;HPM_P1;HPM_P2
2022/05/03 00:01:05;;;;;;;6.57;5.68;;;10.80;99.90;;;;;;5056552;28;20207;-72
2022/05/03 00:03:51;;;;;;;8.85;6.10;;;10.70;99.90;;;;;;5057019;28;20172;-71
2022/05/03 00:06:20;;;;;;;9.65;6.25;;;10.60;99.90;;;;;;5054548;28;20207;-72
2022/05/03 00:09:05;;;;;;;5.78;5.18;;;10.50;99.90;;;;;;5058125;28;20226;-72
2022/05/03 00:11:51;;;;;;;6.25;5.63;;;10.40;99.90;;;;;;5054443;28;20234;-72
2022/05/03 00:14:22;;;;;;;9.38;6.97;;;10.40;99.90;;;;;;5054163;28;20183;-72
2022/05/03 00:16:50;;;;;;;8.45;7.03;;;10.30;99.90;;;;;;5057186;28;20191;-71
2022/05/03 00:19:16;;;;;;;8.57;6.47;;;10.30;99.90;;;;;;5046617;28;20230;-72
2022/05/03 00:21:42;;;;;;;7.18;6.20;;;10.30;99.90;;;;;;5053363;28;20195;-71
2022/05/03 00:24:08;;;;;;;7.00;6.30;;;10.30;99.90;;;;;;5047002;28;20553;-73
2022/05/03 00:26:35;;;;;;;7.25;5.63;;;10.30;99.90;;;;;;5047417;28;20226;-72
2022/05/03 00:29:01;;;;;;;7.35;4.93;;;10.30;99.90;;;;;;5047243;28;20673;-73
2022/05/03 00:31:28;;;;;;;5.40;5.00;;;10.30;99.90;;;;;;5048409;28;20195;-73
2022/05/03 00:33:54;;;;;;;5.43;5.00;;;10.30;99.90;;;;;;5043379;28;20259;-73
2022/05/03 00:36:21;;;;;;;6.03;5.40;;;10.30;99.90;;;;;;5046731;28;20290;-72
2022/05/03 00:38:46;;;;;;;5.75;5.28;;;10.30;99.90;;;;;;5045512;28;20516;-72
2022/05/03 00:41:20;;;;;;;6.35;5.25;;;10.20;99.90;;;;;;5053832;28;20285;-71
2022/05/03 00:43:58;;;;;;;5.80;5.38;;;10.30;99.90;;;;;;5046455;28;20205;-71
2022/05/03 00:46:29;;;;;;;5.78;5.28;;;10.30;99.90;;;;;;5046602;28;20210;-72
2022/05/03 00:49:03;;;;;;;6.00;5.20;;;10.40;99.90;;;;;;5049010;28;20250;-71
2022/05/03 00:51:44;;;;;;;5.70;5.20;;;10.50;99.90;;;;;;5043774;28;20267;-72
2022/05/03 00:54:33;;;;;;;6.95;5.25;;;10.50;99.90;;;;;;5050011;28;20518;-72
2022/05/03 00:57:17;;;;;;;6.50;5.45;;;10.50;99.90;;;;;;5052528;28;20199;-73
2022/05/03 01:00:09;;;;;;;5.40;5.00;;;10.50;99.90;;;;;;5055528;28;20190;-73
2022/05/03 01:02:38;;;;;;;7.68;5.72;;;10.40;99.90;;;;;;5046291;28;20180;-72
2022/05/03 01:05:10;;;;;;;6.13;5.60;;;10.30;99.90;;;;;;5050873;28;20188;-73
2022/05/03 01:07:55;;;;;;;7.20;5.97;;;10.30;99.90;;;;;;5049789;28;20196;-71
2022/05/03 01:10:30;;;;;;;6.25;5.68;;;10.20;99.90;;;;;;5056014;28;20200;-71
2022/05/03 01:13:19;;;;;;;6.80;6.20;;;10.30;99.90;;;;;;5052678;28;20224;-72
2022/05/03 01:15:51;;;;;;;7.30;6.22;;;10.20;99.90;;;;;;5054720;28;20199;-73
2022/05/03 01:18:34;;;;;;;6.43;5.93;;;10.20;99.90;;;;;;5061087;28;20178;-72
2022/05/03 01:21:18;;;;;;;6.00;5.47;;;10.10;99.90;;;;;;5051442;28;20211;-71
2022/05/03 01:23:59;;;;;;;5.90;5.50;;;10.10;99.90;;;;;;5048670;28;20179;-72
2022/05/03 01:27:02;;;;;;;6.35;5.78;;;10.10;99.90;;;;;;5051428;28;20203;-71
2022/05/03 01:29:35;;;;;;;6.65;5.97;;;10.10;99.90;;;;;;5044105;28;20204;-71
2022/05/03 01:32:08;;;;;;;5.63;5.18;;;9.90;99.90;;;;;;5050751;28;20266;-77
2022/05/03 01:34:35;;;;;;;5.63;5.18;;;9.90;99.90;;;;;;5048339;28;20189;-71
2022/05/03 01:37:04;;;;;;;6.50;5.90;;;9.80;99.90;;;;;;5057548;28;20197;-72
2022/05/03 01:39:48;;;;;;;6.50;6.00;;;9.80;99.90;;;;;;5054679;28;20180;-72
2022/05/03 01:42:52;;;;;;;8.40;5.45;;;9.80;99.90;;;;;;5048768;28;20187;-72
2022/05/03 01:45:32;;;;;;;5.95;5.40;;;9.80;99.90;;;;;;5057228;28;20186;-72
2022/05/03 01:48:16;;;;;;;6.82;6.32;;;9.90;99.90;;;;;;5054205;28;20183;-72
2022/05/03 01:50:49;;;;;;;6.53;5.85;;;9.90;99.90;;;;;;5044966;28;20215;-72
2022/05/03 01:53:35;;;;;;;6.68;6.07;;;9.90;99.90;;;;;;5052743;28;20175;-72
2022/05/03 01:56:25;;;;;;;7.22;6.63;;;9.80;99.90;;;;;;5057198;28;20678;-71
2022/05/03 01:59:06;;;;;;;6.70;6.10;;;9.70;99.90;;;;;;5047788;28;20191;-72
2022/05/03 02:01:58;;;;;;;7.18;6.47;;;9.60;99.90;;;;;;5054543;28;20184;-71
2022/05/03 02:04:48;;;;;;;6.22;5.72;;;9.50;99.90;;;;;;5049947;28;20187;-72
2022/05/03 02:07:37;;;;;;;7.20;6.57;;;9.60;99.90;;;;;;5052873;28;20214;-71
2022/05/03 02:10:17;;;;;;;7.20;6.10;;;9.60;99.90;;;;;;5054276;28;20215;-72
2022/05/03 02:12:51;;;;;;;8.18;7.38;;;9.50;99.90;;;;;;5057414;28;20797;-71
2022/05/03 02:15:38;;;;;;;7.50;6.80;;;9.40;99.90;;;;;;5056597;28;20190;-71
2022/05/03 02:18:09;;;;;;;7.50;6.82;;;9.20;99.90;;;;;;5054142;28;20184;-72
2022/05/03 02:20:37;;;;;;;9.38;7.45;;;9.20;99.90;;;;;;5060572;28;20317;-71
2022/05/03 02:23:31;;;;;;;9.05;6.82;;;9.20;99.90;;;;;;5058369;28;20203;-71
2022/05/03 02:26:15;;;;;;;7.95;6.45;;;9.10;99.90;;;;;;5051476;28;20202;-71
2022/05/03 02:29:04;;;;;;;8.38;7.63;;;9.10;99.90;;;;;;5057218;28;20247;-71
2022/05/03 02:31:36;;;;;;;7.15;6.57;;;9.10;99.90;;;;;;5054356;28;20184;-72
2022/05/03 02:34:16;;;;;;;8.63;7.85;;;9.00;99.90;;;;;;5051146;28;20246;-72
2022/05/03 02:36:48;;;;;;;7.47;6.75;;;8.90;99.90;;;;;;5058378;28;20215;-70
2022/05/03 02:39:19;;;;;;;8.55;7.25;;;8.90;99.90;;;;;;5062956;28;20179;-70
2022/05/03 02:41:49;;;;;;;7.18;6.47;;;8.90;99.90;;;;;;5056327;28;20547;-71
2022/05/03 02:44:14;;;;;;;9.57;8.00;;;8.90;99.90;;;;;;5048806;28;20202;-71
2022/05/03 02:47:04;;;;;;;11.82;7.57;;;8.90;99.90;;;;;;5053448;28;20238;-70
2022/05/03 02:49:39;;;;;;;8.90;7.95;;;8.90;99.90;;;;;;5061857;28;20570;-71
2022/05/03 02:52:24;;;;;;;8.07;7.35;;;8.90;99.90;;;;;;5056514;28;20657;-71
2022/05/03 02:55:21;;;;;;;8.50;7.68;;;8.90;99.90;;;;;;5050802;28;20171;-71
2022/05/03 02:57:55;;;;;;;8.23;7.40;;;8.90;99.90;;;;;;5049048;28;20222;-71
2022/05/03 03:03:19;;;;;;;7.90;7.20;;;8.90;99.90;;;;;;5059143;28;20336;-71
2022/05/03 03:05:55;;;;;;;8.70;6.95;;;9.00;99.90;;;;;;5049013;28;20219;-72
2022/05/03 03:08:23;;;;;;;9.18;7.25;;;9.00;99.90;;;;;;5057880;28;20191;-72
2022/05/03 03:11:01;;;;;;;8.82;7.15;;;9.00;99.90;;;;;;5054742;28;20179;-71
2022/05/03 03:13:51;;;;;;;7.70;6.70;;;9.00;99.90;;;;;;5056871;28;20183;-71
2022/05/03 03:16:28;;;;;;;7.65;6.88;;;9.00;99.90;;;;;;5056722;28;20199;-72
2022/05/03 03:18:57;;;;;;;7.28;6.63;;;9.00;99.90;;;;;;5054095;28;20183;-73
2022/05/03 03:21:27;;;;;;;8.90;7.13;;;9.10;99.90;;;;;;5055697;28;20180;-72
2022/05/03 03:23:55;;;;;;;7.80;7.13;;;9.00;99.90;;;;;;5048968;28;20186;-71
2022/05/03 03:26:22;;;;;;;8.30;7.30;;;9.00;99.90;;;;;;5052411;28;20683;-71
2022/05/03 03:28:49;;;;;;;8.05;7.32;;;8.90;99.90;;;;;;5055592;28;20282;-71
2022/05/03 03:31:17;;;;;;;10.45;7.22;;;8.90;99.90;;;;;;5055745;28;20180;-73
2022/05/03 03:33:43;;;;;;;8.05;7.28;;;8.80;99.90;;;;;;5055583;28;20176;-72
2022/05/03 03:36:11;;;;;;;8.02;7.32;;;8.80;99.90;;;;;;5058112;28;20200;-71
2022/05/03 03:38:41;;;;;;;8.65;6.43;;;8.90;99.90;;;;;;5055993;28;20282;-71
2022/05/03 03:41:08;;;;;;;8.40;7.70;;;8.90;99.90;;;;;;5047399;28;20627;-71
2022/05/03 03:43:34;;;;;;;7.82;7.15;;;9.00;99.90;;;;;;5053401;28;20214;-71
2022/05/03 03:46:00;;;;;;;11.30;7.72;;;8.90;99.90;;;;;;5055119;28;20208;-71
2022/05/03 03:48:26;;;;;;;9.38;7.70;;;8.90;99.90;;;;;;5056095;28;20196;-71
2022/05/03 03:50:54;;;;;;;8.60;7.90;;;8.70;99.90;;;;;;5055127;28;20622;-71
2022/05/03 03:53:19;;;;;;;8.50;7.70;;;8.70;99.90;;;;;;5055627;28;20246;-72
2022/05/03 03:55:46;;;;;;;8.15;7.45;;;8.60;99.90;;;;;;5056257;28;20207;-72
2022/05/03 03:58:13;;;;;;;8.40;7.70;;;8.60;99.90;;;;;;5056778;28;20195;-72
2022/05/03 04:00:39;;;;;;;8.00;7.35;;;8.70;99.90;;;;;;5047582;28;20226;-72
2022/05/03 04:03:07;;;;;;;9.48;7.72;;;8.70;99.90;;;;;;5052655;28;20184;-71
2022/05/03 04:05:35;;;;;;;8.65;7.80;;;8.70;99.90;;;;;;5057838;28;20206;-71
2022/05/03 04:08:01;;;;;;;8.35;7.65;;;8.70;99.90;;;;;;5053703;28;20187;-73
2022/05/03 04:10:26;;;;;;;8.60;7.90;;;8.80;99.90;;;;;;5051014;28;20213;-71
2022/05/03 04:12:52;;;;;;;8.65;7.95;;;8.80;99.90;;;;;;5042156;28;20168;-71
2022/05/03 04:15:18;;;;;;;9.88;8.40;;;8.80;99.90;;;;;;5042016;28;20177;-71
2022/05/03 04:17:44;;;;;;;9.23;8.32;;;8.90;99.90;;;;;;5046272;28;20548;-72
2022/05/03 04:20:16;;;;;;;7.80;7.00;;;9.00;99.90;;;;;;5027585;28;20180;-72
2022/05/03 04:22:41;;;;;;;8.50;7.70;;;9.00;99.90;;;;;;5051334;28;20180;-71
2022/05/03 04:25:08;;;;;;;8.98;7.63;;;9.10;99.90;;;;;;5047967;28;20662;-74
2022/05/03 04:27:33;;;;;;;8.98;8.27;;;9.20;99.90;;;;;;5048859;28;20185;-71
2022/05/03 04:30:01;;;;;;;9.60;8.77;;;9.20;99.90;;;;;;5038585;28;20861;-71
2022/05/03 04:32:32;;;;;;;9.00;8.13;;;9.30;99.90;;;;;;5043668;28;20187;-72
2022/05/03 04:34:58;;;;;;;8.68;7.88;;;9.30;99.90;;;;;;5040549;28;20203;-71
2022/05/03 04:37:24;;;;;;;10.25;8.77;;;9.40;99.90;;;;;;5055340;28;20298;-71
2022/05/03 04:39:50;;;;;;;9.55;8.65;;;9.40;99.90;;;;;;5053591;28;20244;-72
2022/05/03 04:42:16;;;;;;;9.10;8.32;;;9.50;99.90;;;;;;5048320;28;20184;-72
2022/05/03 04:44:42;;;;;;;9.40;8.60;;;9.60;99.90;;;;;;5042792;28;20229;-72
2022/05/03 04:47:07;;;;;;;9.90;9.10;;;9.60;99.90;;;;;;5039832;28;20224;-71
2022/05/03 04:49:33;;;;;;;9.77;8.80;;;9.70;99.90;;;;;;5040718;28;20250;-71
2022/05/03 04:51:59;;;;;;;8.90;8.10;;;9.80;99.90;;;;;;5043953;28;20711;-71
2022/05/03 04:54:25;;;;;;;9.18;8.35;;;9.90;99.90;;;;;;5050761;28;20635;-75
2022/05/03 04:56:58;;;;;;;8.73;8.02;;;9.90;99.90;;;;;;5043211;28;20232;-76
2022/05/03 04:59:24;;;;;;;8.40;7.80;;;10.00;99.90;;;;;;5041254;28;20592;-75
2022/05/03 05:01:49;;;;;;;8.88;8.15;;;10.10;99.90;;;;;;5041177;28;20250;-75
2022/05/03 05:04:15;;;;;;;8.48;7.78;;;10.10;99.90;;;;;;5040209;28;20180;-77
2022/05/03 05:06:41;;;;;;;9.07;8.27;;;10.20;99.90;;;;;;5039551;28;20250;-72
2022/05/03 05:09:07;;;;;;;9.57;8.25;;;10.20;99.90;;;;;;5046859;28;20696;-75
2022/05/03 05:11:32;;;;;;;10.20;8.77;;;10.20;99.90;;;;;;5054489;28;20279;-73
2022/05/03 05:13:58;;;;;;;9.30;8.50;;;10.30;99.90;;;;;;5050750;28;20255;-73
2022/05/03 05:16:23;;;;;;;9.02;8.23;;;10.40;99.90;;;;;;5055114;28;20214;-73
2022/05/03 05:18:49;;;;;;;8.68;7.97;;;10.40;99.90;;;;;;5046813;28;20183;-73
2022/05/03 05:21:15;;;;;;;9.77;8.98;;;10.40;99.90;;;;;;5051748;28;20747;-73
2022/05/03 05:23:41;;;;;;;9.10;8.40;;;10.50;99.90;;;;;;5052248;28;20180;-74
2022/05/03 05:26:07;;;;;;;8.65;7.95;;;10.60;99.90;;;;;;5043003;28;20290;-72
2022/05/03 05:28:32;;;;;;;9.70;8.57;;;10.70;99.90;;;;;;5048648;28;20183;-73
2022/05/03 05:30:58;;;;;;;8.77;8.07;;;10.80;99.90;;;;;;5043907;28;20179;-73
2022/05/03 05:33:24;;;;;;;9.10;7.97;;;10.90;99.90;;;;;;5055818;28;20180;-74
2022/05/03 05:35:51;;;;;;;8.80;8.10;;;11.00;99.90;;;;;;5050656;28;20200;-73
2022/05/03 05:38:17;;;;;;;9.02;8.25;;;11.10;99.90;;;;;;5046751;28;20188;-72
2022/05/03 05:40:44;;;;;;;9.18;8.27;;;11.20;99.90;;;;;;5052544;28;20203;-75
2022/05/03 05:43:10;;;;;;;8.93;7.97;;;11.30;99.90;;;;;;5045100;28;20267;-76
2022/05/03 05:45:37;;;;;;;9.57;8.77;;;11.30;99.90;;;;;;5051850;28;20350;-76
2022/05/03 05:48:03;;;;;;;7.55;6.95;;;11.40;99.90;;;;;;5047219;28;20187;-73
2022/05/03 05:50:28;;;;;;;7.95;7.25;;;11.60;99.90;;;;;;5046957;28;20573;-73
2022/05/03 05:55:38;;;;;;;7.28;6.70;;;11.80;99.90;;;;;;5047881;28;20262;-76
2022/05/03 05:58:04;;;;;;;7.72;6.93;;;11.90;99.90;;;;;;5053565;28;20199;-74
2022/05/03 06:00:31;;;;;;;8.50;7.07;;;11.90;99.90;;;;;;5051250;28;20682;-74
2022/05/03 06:03:00;;;;;;;7.75;7.05;;;11.90;99.90;;;;;;5047474;28;20187;-74
2022/05/03 06:05:26;;;;;;;7.90;7.13;;;12.00;99.90;;;;;;5050217;28;20184;-75
2022/05/03 06:07:53;;;;;;;8.40;7.60;;;12.00;99.90;;;;;;5051253;28;20179;-75
2022/05/03 06:10:19;;;;;;;7.13;6.60;;;12.00;99.90;;;;;;5038716;28;20518;-74
2022/05/03 06:12:46;;;;;;;7.38;6.68;;;12.10;99.90;;;;;;5051434;28;20180;-72
2022/05/03 06:15:12;;;;;;;7.07;6.38;;;12.30;99.90;;;;;;5046956;28;20184;-74
2022/05/03 06:17:40;;;;;;;6.72;6.25;;;12.40;99.90;;;;;;5048147;28;20662;-72
2022/05/03 06:20:07;;;;;;;7.57;6.75;;;12.40;99.90;;;;;;5042029;28;20183;-73
2022/05/03 06:22:32;;;;;;;7.30;6.60;;;12.40;99.90;;;;;;5049075;28;20191;-72
2022/05/03 06:24:58;;;;;;;7.20;6.70;;;12.60;99.90;;;;;;5040579;28;20189;-72
2022/05/03 06:27:24;;;;;;;8.25;7.05;;;12.60;99.90;;;;;;5044032;28;20200;-75
2022/05/03 06:29:49;;;;;;;6.90;6.40;;;12.80;99.90;;;;;;5048696;28;20766;-74
2022/05/03 06:32:15;;;;;;;7.93;7.22;;;12.90;99.90;;;;;;5049655;28;20233;-73
2022/05/03 06:34:40;;;;;;;7.15;6.63;;;13.00;99.90;;;;;;5052696;28;20234;-72
2022/05/03 06:37:06;;;;;;;6.80;6.30;;;13.00;99.90;;;;;;5052077;28;20205;-73
2022/05/03 06:39:35;;;;;;;7.38;6.78;;;13.10;99.90;;;;;;5044181;28;20180;-73
2022/05/03 06:42:05;;;;;;;7.13;6.15;;;13.20;99.90;;;;;;5050539;28;20184;-73
2022/05/03 06:44:31;;;;;;;6.40;5.93;;;13.30;99.90;;;;;;5042810;28;20276;-74
2022/05/03 06:46:57;;;;;;;7.20;6.55;;;13.30;99.90;;;;;;5051673;28;20302;-73
2022/05/03 06:49:23;;;;;;;6.68;6.18;;;13.30;99.90;;;;;;5050337;28;20238;-73
2022/05/03 06:51:49;;;;;;;6.30;5.88;;;13.40;99.90;;;;;;5050649;28;20236;-74
2022/05/03 06:54:15;;;;;;;6.57;6.07;;;13.50;99.90;;;;;;5052123;28;20177;-73
2022/05/03 06:56:40;;;;;;;6.22;5.72;;;13.70;99.90;;;;;;5052860;28;20282;-74
2022/05/03 06:59:07;;;;;;;6.53;6.03;;;13.80;99.90;;;;;;5050626;28;20191;-73
2022/05/03 07:01:33;;;;;;;6.53;5.97;;;13.90;99.90;;;;;;5048050;28;20226;-73
2022/05/03 07:03:58;;;;;;;7.10;6.57;;;14.10;99.90;;;;;;5055630;28;20266;-73
2022/05/03 07:06:24;;;;;;;6.22;5.78;;;14.20;99.90;;;;;;5055843;28;20211;-73
2022/05/03 07:08:50;;;;;;;6.90;6.28;;;14.20;99.90;;;;;;5045568;28;20550;-73
2022/05/03 07:11:16;;;;;;;6.25;5.75;;;14.30;99.90;;;;;;5054313;28;20254;-73
2022/05/03 07:13:43;;;;;;;6.43;5.93;;;14.50;99.90;;;;;;5053782;28;20249;-73
2022/05/03 07:16:09;;;;;;;5.90;5.50;;;14.60;99.90;;;;;;5048056;28;20188;-73
2022/05/03 07:24:03;;;;;;;6.15;5.55;;;14.80;99.90;;;;;;5045082;28;20233;-73
2022/05/03 07:26:29;;;;;;;5.70;5.30;;;15.00;99.90;;;;;;5053199;28;20670;-73
2022/05/03 07:28:54;;;;;;;5.75;5.35;;;15.20;99.90;;;;;;5050711;28;20341;-72
2022/05/03 07:31:20;;;;;;;5.93;4.55;;;15.30;99.90;;;;;;5048357;28;20204;-73
2022/05/03 07:33:47;;;;;;;5.32;5.03;;;15.50;99.90;;;;;;5049152;28;20256;-72
2022/05/03 07:36:13;;;;;;;6.05;5.65;;;15.60;99.90;;;;;;5046893;28;20200;-72
2022/05/03 07:38:40;;;;;;;5.47;4.75;;;15.70;99.90;;;;;;5052749;28;20187;-73
2022/05/03 07:41:09;;;;;;;5.95;5.47;;;15.80;99.90;;;;;;5047385;28;20173;-75
2022/05/03 07:43:35;;;;;;;5.30;5.00;;;15.90;99.90;;;;;;5049043;28;20187;-75
2022/05/03 07:46:01;;;;;;;5.97;4.88;;;16.00;99.90;;;;;;5052379;28;20203;-74
2022/05/03 07:48:27;;;;;;;6.13;5.63;;;16.20;99.90;;;;;;5047420;28;20173;-75
2022/05/03 07:50:53;;;;;;;5.85;5.35;;;16.40;99.90;;;;;;5051633;28;20778;-73
2022/05/03 07:53:18;;;;;;;4.70;4.40;;;16.50;99.90;;;;;;5048264;28;20264;-73
2022/05/03 07:55:45;;;;;;;5.63;5.10;;;16.60;99.90;;;;;;5053035;28;20195;-73
2022/05/03 07:58:11;;;;;;;5.90;5.38;;;16.70;99.90;;;;;;5051402;28;20188;-73
2022/05/03 08:00:37;;;;;;;5.22;4.82;;;16.80;99.90;;;;;;5048145;28;20271;-73
2022/05/03 08:03:02;;;;;;;5.47;5.03;;;16.90;99.90;;;;;;5043797;28;20183;-75
2022/05/03 08:05:28;;;;;;;5.75;5.32;;;17.00;99.90;;;;;;5050062;28;20211;-74
2022/05/03 08:07:54;;;;;;;5.30;4.90;;;17.00;99.90;;;;;;5042296;28;20681;-74
2022/05/03 08:10:20;;;;;;;5.18;4.78;;;17.10;99.90;;;;;;5051434;28;20212;-73
2022/05/03 08:12:51;;;;;;;6.90;4.97;;;17.20;99.90;;;;;;5048792;28;20171;-72
2022/05/03 08:15:20;;;;;;;8.00;5.07;;;17.30;99.90;;;;;;5054165;28;20175;-72
2022/05/03 08:17:47;;;;;;;5.72;5.28;;;17.30;99.90;;;;;;5051861;28;20257;-73
2022/05/03 08:20:16;;;;;;;4.95;4.55;;;17.30;99.90;;;;;;5046672;28;20197;-72
2022/05/03 08:22:42;;;;;;;5.10;4.70;;;17.50;99.90;;;;;;5041900;28;20694;-75
2022/05/03 08:25:08;;;;;;;5.20;4.80;;;17.80;99.90;;;;;;5046117;28;20676;-74
2022/05/03 08:27:37;;;;;;;4.85;4.45;;;18.10;99.90;;;;;;5051095;28;20179;-73
2022/05/03 08:30:03;;;;;;;5.07;4.57;;;18.50;99.90;;;;;;5044051;28;20203;-72
2022/05/03 08:32:29;;;;;;;5.28;4.35;;;19.00;99.90;;;;;;5053943;28;20179;-75
2022/05/03 08:34:55;;;;;;;4.65;4.35;;;19.50;99.90;;;;;;5062143;28;20577;-72
2022/05/03 08:42:50;;;;;;;4.13;3.92;;;21.10;99.90;;;;;;5046118;28;20248;-74
2022/05/03 08:45:15;;;;;;;4.00;3.70;;;21.50;99.90;;;;;;5050089;28;20653;-77
2022/05/03 08:47:41;;;;;;;4.00;3.75;;;21.90;99.90;;;;;;5052633;28;20191;-72
2022/05/03 08:50:12;;;;;;;4.38;3.97;;;22.10;99.90;;;;;;5048493;28;20564;-75
2022/05/03 08:52:54;;;;;;;3.67;3.47;;;21.90;99.90;;;;;;5056366;28;20187;-74
2022/05/03 08:55:20;;;;;;;5.88;3.25;;;22.30;99.90;;;;;;5050705;28;20275;-75
2022/05/03 08:57:45;;;;;;;4.20;3.90;;;23.00;99.90;;;;;;5048630;28;20531;-74
2022/05/03 09:00:13;;;;;;;10.32;3.78;;;23.40;98.10;;;;;;5043926;28;20207;-73
2022/05/03 09:02:49;;;;;;;4.05;3.63;;;23.80;98.00;;;;;;5051636;28;20175;-76
2022/05/03 09:05:16;;;;;;;4.00;3.35;;;23.70;94.40;;;;;;5033240;28;20211;-74
2022/05/03 09:07:56;;;;;;;7.65;3.45;;;23.60;94.40;;;;;;5047790;28;20187;-74
2022/05/03 09:10:25;;;;;;;4.10;3.35;;;23.70;93.80;;;;;;5039148;28;20558;-74
2022/05/03 09:12:54;;;;;;;3.38;3.17;;;23.90;93.00;;;;;;5050074;28;20172;-74
2022/05/03 09:15:33;;;;;;;3.58;3.22;;;24.20;92.50;;;;;;5045493;28;20180;-75
2022/05/03 09:18:00;;;;;;;3.50;3.20;;;24.30;89.70;;;;;;5048367;28;20179;-74
2022/05/03 09:26:19;;;;;;;2.95;2.75;;;28.90;69.10;;;;;;5047053;28;20218;-74
2022/05/03 09:28:47;;;;;;;3.00;2.80;;;30.70;60.70;;;;;;5049095;28;20227;-74
2022/05/03 09:31:25;;;;;;;2.70;2.50;;;32.50;55.40;;;;;;5042265;28;20546;-75
2022/05/03 09:33:51;;;;;;;2.97;2.78;;;33.40;49.50;;;;;;5046130;28;20171;-72
2022/05/03 09:36:16;;;;;;;2.95;2.65;;;33.90;48.90;;;;;;5049844;28;20746;-73
2022/05/03 09:38:49;;;;;;;2.63;2.53;;;34.00;47.10;;;;;;5054891;28;20179;-72
2022/05/03 09:41:16;;;;;;;2.60;2.40;;;32.20;48.70;;;;;;5045254;28;20214;-72
2022/05/03 09:44:05;;;;;;;3.10;2.90;;;32.20;49.50;;;;;;5041832;28;20207;-74
2022/05/03 09:46:53;;;;;;;2.72;2.45;;;32.40;48.30;;;;;;5051326;28;20195;-73
2022/05/03 09:49:20;;;;;;;3.65;2.40;;;32.90;47.20;;;;;;5038424;28;20203;-74
2022/05/03 09:51:48;;;;;;;2.88;2.78;;;34.60;45.70;;;;;;5043338;28;20170;-73
2022/05/03 09:54:14;;;;;;;2.53;2.42;;;34.50;43.40;;;;;;5044686;28;20184;-72
2022/05/03 09:56:42;;;;;;;2.55;2.45;;;34.90;43.40;;;;;;5044298;28;20245;-77
2022/05/03 09:59:09;;;;;;;3.47;2.35;;;35.20;42.80;;;;;;5038953;28;20662;-73
2022/05/03 10:01:35;;;;;;;2.83;2.38;;;35.00;45.80;;;;;;5046764;28;20195;-74
2022/05/03 10:04:05;;;;;;;1.98;1.90;;;34.50;44.50;;;;;;5050293;28;20623;-72
2022/05/03 10:06:32;;;;;;;2.17;2.08;;;35.70;41.40;;;;;;5049292;28;20207;-72
2022/05/03 10:08:59;;;;;;;2.30;2.20;;;37.10;39.10;;;;;;5048103;28;20207;-72
2022/05/03 10:11:26;;;;;;;2.78;2.58;;;37.90;38.40;;;;;;5042154;28;20177;-72
2022/05/03 10:13:53;;;;;;;2.80;2.55;;;38.10;38.60;;;;;;5046305;28;20183;-72
2022/05/03 10:21:57;;;;;;;4.05;2.42;;;37.70;38.00;;;;;;5044327;28;20189;-73
2022/05/03 10:24:24;;;;;;;2.38;2.28;;;37.50;38.60;;;;;;5049470;28;20672;-72
2022/05/03 10:26:53;;;;;;;2.92;2.20;;;37.60;40.90;;;;;;5048483;28;20214;-73
2022/05/03 10:29:20;;;;;;;2.15;2.05;;;38.00;39.00;;;;;;5041960;28;20203;-72
2022/05/03 10:31:53;;;;;;;2.10;2.00;;;38.10;38.40;;;;;;5040679;28;20259;-73
2022/05/03 10:34:43;;;;;;;3.55;2.00;;;38.50;37.40;;;;;;5025722;28;20203;-71
2022/05/03 10:37:13;;;;;;;2.63;1.80;;;39.40;35.20;;;;;;5048472;28;20192;-71
2022/05/03 10:39:51;;;;;;;2.80;2.20;;;39.30;34.90;;;;;;5051555;28;20184;-71
2022/05/03 10:42:21;;;;;;;2.60;2.17;;;39.70;34.60;;;;;;5043356;28;20262;-71
2022/05/03 10:45:25;;;;;;;2.13;1.92;;;39.40;35.50;;;;;;5046448;28;20652;-71
2022/05/03 10:47:54;;;;;;;2.53;2.42;;;37.90;36.20;;;;;;5035447;28;20278;-71
2022/05/03 10:50:21;;;;;;;2.35;2.17;;;36.90;37.10;;;;;;5048704;28;20704;-71
2022/05/03 10:52:55;;;;;;;2.45;2.25;;;36.10;40.50;;;;;;5045883;28;20260;-74
2022/05/03 10:55:23;;;;;;;4.10;2.20;;;36.50;39.60;;;;;;5048312;28;20209;-71
2022/05/03 10:58:26;;;;;;;2.63;2.50;;;37.60;40.20;;;;;;5041102;28;20179;-71
2022/05/03 11:01:31;;;;;;;2.42;2.30;;;36.50;38.50;;;;;;5057153;28;20178;-71
2022/05/03 11:04:00;;;;;;;2.28;2.17;;;35.40;39.50;;;;;;5047172;28;20187;-71
2022/05/03 11:06:25;;;;;;;2.67;2.47;;;36.00;40.60;;;;;;5051729;28;20207;-70
2022/05/03 11:11:42;;;;;;;4.80;2.67;;;38.20;37.20;;;;;;5052383;28;20233;-71
2022/05/03 11:14:18;;;;;;;3.13;2.92;;;38.70;37.70;;;;;;5050179;28;20580;-74
2022/05/03 11:16:53;;;;;;;3.08;2.50;;;37.90;37.00;;;;;;5057557;28;20198;-69
2022/05/03 11:19:21;;;;;;;2.72;2.60;;;36.70;38.70;;;;;;5042880;28;20194;-72
2022/05/03 11:21:49;;;;;;;2.40;2.20;;;37.70;37.90;;;;;;5043231;28;20178;-71
2022/05/03 11:24:21;;;;;;;2.50;2.30;;;38.90;35.80;;;;;;5051565;28;20191;-70
2022/05/03 11:26:48;;;;;;;2.45;2.35;;;39.30;37.80;;;;;;5050328;28;20205;-70
2022/05/03 11:29:14;;;;;;;4.25;2.63;;;38.50;37.60;;;;;;5049908;28;20290;-68
2022/05/03 11:31:49;;;;;;;2.58;2.47;;;36.50;37.80;;;;;;5048677;28;20186;-69
2022/05/03 11:34:15;;;;;;;2.78;2.60;;;34.80;40.20;;;;;;5046314;28;20172;-69
2022/05/03 11:36:46;;;;;;;2.70;2.50;;;33.40;41.40;;;;;;5056543;28;20290;-71
2022/05/03 11:39:13;;;;;;;2.72;2.53;;;31.60;44.40;;;;;;5043848;28;20190;-71
2022/05/03 11:41:39;;;;;;;3.95;3.10;;;30.40;46.30;;;;;;5049132;28;20187;-73
2022/05/03 11:44:05;;;;;;;2.45;2.35;;;29.30;47.50;;;;;;5046858;28;20273;-73
2022/05/03 11:46:31;;;;;;;2.65;2.35;;;28.40;49.10;;;;;;5044724;28;20235;-73
2022/05/03 11:49:03;;;;;;;2.85;2.65;;;27.70;50.50;;;;;;5049490;28;20741;-73
2022/05/03 11:57:10;;;;;;;2.90;2.58;;;26.20;53.80;;;;;;5042484;28;20696;-76
2022/05/03 11:59:36;;;;;;;2.30;2.10;;;25.80;54.40;;;;;;5049292;28;20187;-73
2022/05/03 12:02:19;;;;;;;2.90;2.10;;;25.20;53.60;;;;;;5044091;28;20180;-74
2022/05/03 12:05:06;;;;;;;2.47;2.33;;;24.70;54.20;;;;;;5045290;28;20187;-74
2022/05/03 12:07:53;;;;;;;2.85;2.50;;;24.40;54.50;;;;;;5041848;28;20202;-74
2022/05/03 12:10:19;;;;;;;3.65;2.38;;;24.10;54.80;;;;;;5048334;28;20565;-74
2022/05/03 12:13:06;;;;;;;2.75;2.45;;;23.80;56.10;;;;;;5051565;28;20222;-76
2022/05/03 12:15:32;;;;;;;2.47;2.38;;;23.80;57.20;;;;;;5053321;28;20286;-76
2022/05/03 12:18:15;;;;;;;3.53;2.90;;;23.70;55.80;;;;;;5056460;28;20180;-77
2022/05/03 12:20:57;;;;;;;3.28;3.08;;;23.50;57.50;;;;;;5057550;28;20195;-76
2022/05/03 12:23:33;;;;;;;2.83;2.33;;;23.90;58.10;;;;;;5047503;28;20179;-76
2022/05/03 12:26:01;;;;;;;2.63;2.53;;;24.30;55.70;;;;;;5048389;28;20195;-76
2022/05/03 12:28:38;;;;;;;2.78;2.55;;;24.20;56.40;;;;;;5057704;28;20192;-76
2022/05/03 12:31:06;;;;;;;2.78;2.58;;;24.60;56.00;;;;;;5040582;28;20184;-76
2022/05/03 12:33:32;;;;;;;2.85;2.67;;;24.60;55.80;;;;;;5040434;28;20181;-76
2022/05/03 12:35:58;;;;;;;3.33;2.75;;;24.90;56.10;;;;;;5051327;28;20288;-76
2022/05/03 12:38:25;;;;;;;2.85;2.65;;;25.20;56.40;;;;;;5052654;28;20173;-74
2022/05/03 12:40:57;;;;;;;2.80;2.67;;;25.60;55.30;;;;;;5049365;28;20213;-74
2022/05/03 12:43:28;;;;;;;3.50;3.20;;;25.90;56.60;;;;;;5041747;28;20280;-74
2022/05/03 12:45:56;;;;;;;3.38;3.08;;;25.80;54.80;;;;;;5044006;28;20198;-73
2022/05/03 12:48:22;;;;;;;3.17;2.97;;;26.00;52.00;;;;;;5040607;28;20172;-73
2022/05/03 12:50:48;;;;;;;5.18;2.50;;;26.30;52.60;;;;;;5045560;28;20307;-74
2022/05/03 12:53:15;;;;;;;3.30;2.65;;;26.60;51.10;;;;;;5038191;28;20183;-74
2022/05/03 12:55:41;;;;;;;2.70;2.60;;;26.90;52.60;;;;;;5043377;28;20686;-74
2022/05/03 12:58:21;;;;;;;2.50;2.40;;;27.10;50.50;;;;;;5047926;28;20238;-75
2022/05/03 13:00:48;;;;;;;2.92;2.53;;;28.50;49.60;;;;;;5055991;28;20220;-75
2022/05/03 13:03:15;;;;;;;2.35;2.20;;;30.00;46.20;;;;;;5045837;28;20195;-74
2022/05/03 13:05:41;;;;;;;2.35;2.20;;;30.80;44.40;;;;;;5053390;28;20573;-74
2022/05/03 13:08:07;;;;;;;4.05;2.10;;;31.00;43.90;;;;;;5048209;28;20180;-75
2022/05/03 13:10:33;;;;;;;1.80;1.70;;;33.80;42.90;;;;;;5054092;28;20566;-72
2022/05/03 13:13:01;;;;;;;2.50;2.10;;;38.00;38.50;;;;;;5044321;28;20170;-73
2022/05/03 13:15:27;;;;;;;2.20;2.10;;;40.10;34.40;;;;;;5048615;28;20183;-72
2022/05/03 13:17:53;;;;;;;2.10;2.00;;;40.90;32.90;;;;;;5045279;28;20255;-72
2022/05/03 13:20:20;;;;;;;2.25;2.15;;;43.00;31.40;;;;;;5048481;28;20183;-73
2022/05/03 13:22:46;;;;;;;2.58;2.00;;;45.30;29.80;;;;;;5048075;28;20172;-73
2022/05/03 13:25:12;;;;;;;2.20;2.00;;;45.70;29.00;;;;;;5049896;28;20395;-73
2022/05/03 13:27:38;;;;;;;1.55;1.55;;;46.00;29.50;;;;;;5051777;28;20203;-73
2022/05/03 13:30:04;;;;;;;1.50;1.40;;;45.70;28.30;;;;;;5042641;28;20689;-72
2022/05/03 13:32:30;;;;;;;1.98;1.80;;;45.90;28.00;;;;;;5042424;28;20185;-74
2022/05/03 13:34:57;;;;;;;1.70;1.60;;;45.60;29.30;;;;;;5044910;28;20166;-73
2022/05/03 13:42:52;;;;;;;1.80;1.70;;;45.80;27.10;;;;;;5047393;28;20197;-74
2022/05/03 13:45:18;;;;;;;1.42;1.42;;;43.60;29.00;;;;;;5046786;28;20175;-72
2022/05/03 13:47:43;;;;;;;1.88;1.77;;;43.00;28.60;;;;;;5045799;28;20680;-72
2022/05/03 13:50:10;;;;;;;1.80;1.70;;;43.40;28.90;;;;;;5042533;28;20218;-76